Time;durP1;ratioP1;P1;durP2;ratioP2;P2;SDS_P1;SDS_P2;PMS_P1;PMS_P2;Temp;Humidity;BMP_temperature;BMP_pressure;BME280_temperature;BME280_humidity;BME280_pressure;Samples;Min_cycle;Max_cycle;Signal;HPM_P1;HPM_P2
2021/04/04 00:00:21;;;;;;;7.30;0.52;;;6.60;98.10;;;;;;6156777;23;20012;-78
2021/04/04 00:02:47;;;;;;;5.00;0.20;;;6.70;97.80;;;;;;6154742;23;20001;-78
2021/04/04 00:05:13;;;;;;;13.82;0.85;;;6.70;98.30;;;;;;6156316;23;20009;-77
2021/04/04 00:07:39;;;;;;;19.77;0.73;;;6.70;98.60;;;;;;6130318;23;20006;-78
2021/04/04 00:10:07;;;;;;;14.18;0.70;;;6.60;99.50;;;;;;6156187;23;20421;-78
2021/04/04 00:12:33;;;;;;;11.85;0.35;;;6.60;99.90;;;;;;6154942;23;20001;-78
2021/04/04 00:15:04;;;;;;;7.75;0.28;;;6.60;99.30;;;;;;6156232;23;20452;-77
2021/04/04 00:17:29;;;;;;;19.40;0.73;;;6.60;99.90;;;;;;6155979;23;20088;-78
2021/04/04 00:19:55;;;;;;;7.18;0.60;;;6.60;99.90;;;;;;6156681;23;20033;-77
2021/04/04 00:22:21;;;;;;;8.38;0.40;;;6.60;99.90;;;;;;6156725;23;20012;-78
2021/04/04 00:24:46;;;;;;;6.03;0.10;;;6.60;99.90;;;;;;6156911;23;20005;-78
2021/04/04 00:27:12;;;;;;;5.65;0.95;;;6.60;99.90;;;;;;6129738;23;20109;-77
2021/04/04 00:29:37;;;;;;;8.25;0.70;;;6.60;99.90;;;;;;6156508;23;20001;-78
2021/04/04 00:32:03;;;;;;;6.30;0.63;;;6.60;99.90;;;;;;6156231;23;20333;-77
2021/04/04 00:34:29;;;;;;;7.82;0.32;;;6.60;99.90;;;;;;6156147;23;20049;-77
2021/04/04 00:36:54;;;;;;;7.00;0.50;;;6.60;99.90;;;;;;6129989;23;20013;-77
2021/04/04 00:39:21;;;;;;;9.93;0.15;;;6.60;99.90;;;;;;6156664;23;20426;-77
2021/04/04 00:41:46;;;;;;;12.02;0.63;;;6.60;99.90;;;;;;6130222;23;20408;-77
2021/04/04 00:44:12;;;;;;;9.82;0.75;;;6.60;99.90;;;;;;6129884;23;19997;-77
2021/04/04 00:46:38;;;;;;;7.15;0.82;;;6.50;99.90;;;;;;6156330;23;19997;-77
2021/04/04 00:49:05;;;;;;;7.85;0.10;;;6.50;99.90;;;;;;6155996;23;20063;-78
2021/04/04 00:51:31;;;;;;;9.95;0.17;;;6.50;99.90;;;;;;6156029;23;20029;-77
2021/04/04 00:53:57;;;;;;;9.38;0.77;;;6.60;99.90;;;;;;6130270;23;20006;-76
2021/04/04 00:56:23;;;;;;;9.18;0.25;;;6.50;99.90;;;;;;6130986;23;20004;-79
2021/04/04 00:58:49;;;;;;;11.52;0.73;;;6.90;99.90;;;;;;6158176;23;20001;-80
2021/04/04 01:01:15;;;;;;;10.18;0.98;;;6.50;99.90;;;;;;6159858;23;20001;-77
2021/04/04 01:03:40;;;;;;;7.57;0.40;;;6.50;99.90;;;;;;6133366;23;20093;-76
2021/04/04 01:06:07;;;;;;;12.00;1.27;;;6.50;99.90;;;;;;6159553;23;20009;-77
2021/04/04 01:08:35;;;;;;;8.05;0.20;;;6.50;99.90;;;;;;6133240;23;20002;-77
2021/04/04 01:11:01;;;;;;;4.55;0.25;;;6.50;99.90;;;;;;6159334;23;20002;-76
2021/04/04 01:13:54;;;;;;;15.00;1.00;;;6.50;99.90;;;;;;6157609;23;19998;-78
2021/04/04 01:16:39;;;;;;;3.60;0.30;;;6.50;99.90;;;;;;6158533;23;19997;-81
2021/04/04 01:19:25;;;;;;;9.50;0.08;;;6.50;99.90;;;;;;6157703;23;20341;-76
2021/04/04 01:21:59;;;;;;;6.88;0.55;;;6.50;99.90;;;;;;6159017;23;20016;-80
2021/04/04 01:24:58;;;;;;;7.85;1.20;;;6.50;99.90;;;;;;6158434;23;20518;-78
2021/04/04 01:27:46;;;;;;;6.35;0.70;;;6.40;99.90;;;;;;6160270;23;20005;-78
2021/04/04 01:30:14;;;;;;;1.20;0.33;;;6.50;99.90;;;;;;6136673;23;20072;-77
2021/04/04 01:32:41;;;;;;;5.25;0.68;;;6.40;99.90;;;;;;6162314;23;20696;-80
2021/04/04 01:35:10;;;;;;;5.68;0.68;;;6.40;99.90;;;;;;6133843;23;19997;-78
2021/04/04 01:37:37;;;;;;;3.22;0.15;;;6.40;99.90;;;;;;6160228;23;20010;-80
2021/04/04 01:40:06;;;;;;;2.75;0.80;;;6.40;99.90;;;;;;6134303;23;20008;-78
2021/04/04 01:42:33;;;;;;;;;;;6.40;99.90;;;;;;6159378;23;20479;-77
2021/04/04 01:45:00;;;;;;;8.57;0.38;;;6.40;99.90;;;;;;6133281;23;19924;-78
2021/04/04 01:47:26;;;;;;;9.63;0.73;;;6.30;99.90;;;;;;6134210;23;20010;-77
2021/04/04 01:49:54;;;;;;;7.80;0.50;;;6.40;99.90;;;;;;6160286;23;20001;-81
2021/04/04 01:52:21;;;;;;;3.65;0.80;;;6.40;99.90;;;;;;6134052;23;20005;-78
2021/04/04 01:54:47;;;;;;;11.30;0.45;;;6.80;99.90;;;;;;6134511;23;20033;-78
2021/04/04 01:57:13;;;;;;;9.00;0.30;;;6.30;99.90;;;;;;6158460;23;20005;-78
2021/04/04 01:59:41;;;;;;;8.32;0.73;;;6.40;99.90;;;;;;6158090;23;20009;-78
2021/04/04 02:02:08;;;;;;;10.30;0.35;;;6.40;99.90;;;;;;6157765;23;20009;-78
2021/04/04 02:04:36;;;;;;;18.80;0.30;;;6.40;99.90;;;;;;6132141;23;20089;-78
2021/04/04 02:07:02;;;;;;;9.73;0.85;;;6.40;99.90;;;;;;6158826;23;20095;-77
2021/04/04 02:09:29;;;;;;;10.45;0.40;;;6.40;99.90;;;;;;6157959;23;20002;-78
2021/04/04 02:11:56;;;;;;;3.75;0.30;;;6.40;99.90;;;;;;6132574;23;19998;-78
2021/04/04 02:14:23;;;;;;;7.93;0.30;;;6.40;99.90;;;;;;6158365;23;19997;-78
2021/04/04 02:16:53;;;;;;;13.25;1.25;;;6.40;99.90;;;;;;6158482;23;20002;-78
2021/04/04 02:19:22;;;;;;;5.43;0.10;;;6.40;99.90;;;;;;6132025;23;19997;-77
2021/04/04 02:21:50;;;;;;;7.55;1.55;;;6.40;99.90;;;;;;6157696;23;20434;-77
2021/04/04 02:24:16;;;;;;;6.57;0.52;;;6.40;99.90;;;;;;6157931;23;19998;-78
2021/04/04 02:26:43;;;;;;;10.32;1.35;;;6.40;99.90;;;;;;6157778;23;20008;-78
2021/04/04 02:29:09;;;;;;;11.43;0.50;;;6.30;99.90;;;;;;6157701;23;20060;-78
2021/04/04 02:31:40;;;;;;;7.30;0.63;;;6.40;99.90;;;;;;6131518;23;20049;-78
2021/04/04 02:34:09;;;;;;;8.52;0.28;;;6.40;99.90;;;;;;6157855;23;20005;-78
2021/04/04 02:36:38;;;;;;;6.90;0.30;;;6.40;99.90;;;;;;6131241;23;20002;-78
2021/04/04 02:39:08;;;;;;;11.27;1.02;;;6.30;99.90;;;;;;6158737;23;20010;-77
2021/04/04 02:41:35;;;;;;;8.25;0.10;;;6.30;99.90;;;;;;6162055;23;20033;-78
2021/04/04 02:44:03;;;;;;;5.82;0.40;;;6.30;99.90;;;;;;6133587;23;20009;-79
2021/04/04 02:46:30;;;;;;;4.15;0.10;;;6.30;99.90;;;;;;6158425;23;20009;-78
2021/04/04 02:49:00;;;;;;;7.35;1.25;;;6.20;99.90;;;;;;6159190;23;20326;-78
2021/04/04 02:51:58;;;;;;;4.13;0.05;;;6.20;99.90;;;;;;6159152;23;19993;-78
2021/04/04 02:54:28;;;;;;;10.30;0.90;;;6.30;99.90;;;;;;6129072;23;20012;-78
2021/04/04 02:56:57;;;;;;;9.40;0.77;;;6.30;99.90;;;;;;6130500;23;20437;-77
2021/04/04 02:59:27;;;;;;;9.05;1.60;;;6.30;99.90;;;;;;6156670;23;20064;-78
2021/04/04 03:01:54;;;;;;;4.88;0.30;;;6.30;99.90;;;;;;6156698;23;20004;-77
2021/04/04 03:04:22;;;;;;;9.77;0.30;;;6.30;99.90;;;;;;6156740;23;20056;-77
2021/04/04 03:06:49;;;;;;;7.00;0.45;;;6.30;99.90;;;;;;6130253;23;19998;-77
2021/04/04 03:09:17;;;;;;;15.73;0.55;;;6.30;99.90;;;;;;6156661;23;20005;-77
2021/04/04 03:11:43;;;;;;;6.03;0.32;;;6.30;99.90;;;;;;6130575;23;19998;-77
2021/04/04 03:14:10;;;;;;;9.52;0.10;;;6.30;99.90;;;;;;6131987;23;19998;-78
2021/04/04 03:16:37;;;;;;;6.97;1.00;;;6.30;99.90;;;;;;6157879;23;20337;-77
2021/04/04 03:19:03;;;;;;;5.88;0.38;;;6.20;99.90;;;;;;6132493;23;20076;-78
2021/04/04 03:21:30;;;;;;;4.45;0.35;;;6.30;99.90;;;;;;6132883;23;20001;-79
2021/04/04 03:23:57;;;;;;;8.43;0.82;;;6.20;99.90;;;;;;6159398;23;20013;-79
2021/04/04 03:26:24;;;;;;;8.02;0.38;;;6.20;99.90;;;;;;6159499;23;20009;-79
2021/04/04 03:28:51;;;;;;;8.70;1.10;;;6.20;99.90;;;;;;6133408;23;20008;-79
2021/04/04 03:31:17;;;;;;;9.00;0.20;;;6.20;99.90;;;;;;6159753;23;20005;-82
2021/04/04 03:33:43;;;;;;;6.32;1.20;;;6.20;99.90;;;;;;6130365;23;20072;-79
2021/04/04 03:36:14;;;;;;;7.40;0.65;;;6.20;99.90;;;;;;6159059;23;20012;-81
2021/04/04 03:38:40;;;;;;;7.05;0.25;;;6.20;99.90;;;;;;6159149;23;20337;-79
2021/04/04 03:41:06;;;;;;;7.10;0.25;;;6.10;99.90;;;;;;6159096;23;20040;-79
2021/04/04 03:43:34;;;;;;;12.32;0.80;;;6.20;99.90;;;;;;6159837;23;20005;-79
2021/04/04 03:46:01;;;;;;;9.88;0.40;;;6.20;99.90;;;;;;6133233;23;20434;-79
2021/04/04 03:51:09;;;;;;;9.82;0.95;;;6.30;99.90;;;;;;6167407;23;20079;-76
2021/04/04 03:53:42;;;;;;;7.55;0.13;;;6.10;99.90;;;;;;6159185;23;20021;-80
2021/04/04 03:56:10;;;;;;;4.03;0.47;;;6.20;99.90;;;;;;6131852;23;20002;-80
2021/04/04 03:58:38;;;;;;;7.18;1.00;;;6.20;99.90;;;;;;6131917;23;20008;-77
2021/04/04 04:01:06;;;;;;;6.63;0.57;;;6.20;99.90;;;;;;6158027;23;20388;-77
2021/04/04 04:03:37;;;;;;;8.05;0.40;;;6.20;99.90;;;;;;6157825;23;20043;-80
2021/04/04 04:06:04;;;;;;;5.70;0.10;;;6.20;99.90;;;;;;6158524;23;20010;-77
2021/04/04 04:08:30;;;;;;;9.18;0.85;;;6.20;99.90;;;;;;6155873;23;19998;-77
2021/04/04 04:10:57;;;;;;;3.17;0.13;;;6.20;99.90;;;;;;6156108;23;20121;-77
2021/04/04 04:13:23;;;;;;;3.45;0.40;;;6.20;99.90;;;;;;6130016;23;20009;-77
2021/04/04 04:15:51;;;;;;;6.53;0.45;;;6.20;99.90;;;;;;6156047;23;20002;-77
2021/04/04 04:18:18;;;;;;;12.43;0.30;;;6.20;99.90;;;;;;6156222;23;20013;-77
2021/04/04 04:20:45;;;;;;;7.47;1.33;;;6.20;99.90;;;;;;6156071;23;20393;-77
2021/04/04 04:23:11;;;;;;;5.88;0.80;;;6.10;99.90;;;;;;6156440;23;20122;-77
2021/04/04 04:25:39;;;;;;;4.97;1.15;;;6.20;99.90;;;;;;6156159;23;20079;-78
2021/04/04 04:28:05;;;;;;;3.53;0.40;;;6.20;99.90;;;;;;6155857;23;20001;-77
2021/04/04 04:30:31;;;;;;;10.25;0.40;;;6.10;99.90;;;;;;6155865;23;20012;-78
2021/04/04 04:33:01;;;;;;;5.30;0.20;;;6.20;99.90;;;;;;6129926;23;20036;-78
2021/04/04 04:35:29;;;;;;;7.38;0.50;;;6.20;99.90;;;;;;6130081;23;20001;-76
2021/04/04 04:37:55;;;;;;;6.55;0.60;;;6.20;99.90;;;;;;6157393;23;20016;-77
2021/04/04 04:40:22;;;;;;;6.32;0.30;;;6.20;99.90;;;;;;6132453;23;20055;-77
2021/04/04 04:42:50;;;;;;;6.13;0.25;;;6.20;99.90;;;;;;6158000;23;20041;-77
2021/04/04 04:45:21;;;;;;;9.68;0.40;;;9.10;99.90;;;;;;6132621;23;20006;-81
2021/04/04 04:47:47;;;;;;;7.47;0.40;;;6.00;99.90;;;;;;6132477;23;20013;-77
2021/04/04 04:50:13;;;;;;;11.23;0.43;;;6.10;99.90;;;;;;6157922;23;20330;-78
2021/04/04 04:52:40;;;;;;;1.08;0.10;;;6.10;99.90;;;;;;6132180;23;20058;-79
2021/04/04 04:55:09;;;;;;;4.13;0.20;;;6.10;99.90;;;;;;6156654;23;20067;-78
2021/04/04 04:57:36;;;;;;;3.95;0.03;;;6.10;99.90;;;;;;6155787;23;20005;-77
2021/04/04 05:00:07;;;;;;;3.35;0.30;;;6.00;99.90;;;;;;6155959;23;20001;-77
2021/04/04 05:02:33;;;;;;;3.95;0.47;;;6.00;99.90;;;;;;6129760;23;20009;-77
2021/04/04 05:05:00;;;;;;;5.55;0.30;;;6.00;99.90;;;;;;6130712;23;20008;-77
2021/04/04 05:07:28;;;;;;;5.85;0.28;;;6.00;99.90;;;;;;6155421;23;20012;-78
2021/04/04 05:09:54;;;;;;;9.70;0.70;;;6.00;99.90;;;;;;6156135;23;20002;-77
2021/04/04 05:12:22;;;;;;;12.60;0.70;;;6.00;99.90;;;;;;6155750;23;20025;-77
2021/04/04 05:14:48;;;;;;;8.23;1.20;;;6.00;99.90;;;;;;6155554;23;20010;-77
2021/04/04 05:17:14;;;;;;;5.35;0.30;;;6.00;99.90;;;;;;6129668;23;20001;-77
2021/04/04 05:19:40;;;;;;;9.13;0.40;;;6.00;99.90;;;;;;6156063;23;20041;-77
2021/04/04 05:22:08;;;;;;;4.57;0.55;;;6.00;99.90;;;;;;6157146;23;20002;-77
2021/04/04 05:24:33;;;;;;;4.75;0.30;;;6.00;99.90;;;;;;6130650;23;20076;-78
2021/04/04 05:26:59;;;;;;;5.20;0.32;;;6.00;99.90;;;;;;6125018;23;20010;-77
2021/04/04 05:29:25;;;;;;;6.95;0.40;;;6.00;99.90;;;;;;6125074;23;19998;-76
2021/04/04 05:31:56;;;;;;;2.10;0.20;;;6.00;99.90;;;;;;6126438;23;20006;-77
2021/04/04 05:34:27;;;;;;;6.28;0.38;;;6.10;99.90;;;;;;6126211;23;20006;-77
2021/04/04 05:36:58;;;;;;;2.33;0.35;;;6.10;99.90;;;;;;6100412;23;20006;-76
2021/04/04 05:39:25;;;;;;;1.15;0.10;;;6.10;99.90;;;;;;6126970;23;20085;-77
2021/04/04 05:41:57;;;;;;;3.95;0.10;;;6.10;99.90;;;;;;6100484;23;20090;-78
2021/04/04 05:44:38;;;;;;;3.28;0.10;;;6.00;99.90;;;;;;6127573;23;20426;-75
2021/04/04 05:47:42;;;;;;;2.72;0.30;;;6.00;99.90;;;;;;6128022;23;20326;-76
2021/04/04 05:50:29;;;;;;;2.60;0.20;;;6.00;99.90;;;;;;6106916;23;20375;-76
2021/04/04 05:53:02;;;;;;;3.47;0.52;;;6.00;99.90;;;;;;6128356;23;20329;-77
2021/04/04 05:56:07;;;;;;;6.28;0.52;;;6.00;99.90;;;;;;6101909;23;19998;-77
2021/04/04 05:58:39;;;;;;;2.55;0.20;;;6.10;99.90;;;;;;6103969;23;20017;-77
2021/04/04 06:01:24;;;;;;;1.05;0.17;;;6.10;99.90;;;;;;6130321;23;20442;-76
2021/04/04 06:04:02;;;;;;;4.05;0.43;;;6.10;99.90;;;;;;6129949;23;20002;-76
2021/04/04 06:06:41;;;;;;;1.63;0.13;;;6.10;99.90;;;;;;6103406;23;20026;-77
2021/04/04 06:09:50;;;;;;;7.03;0.13;;;6.20;99.90;;;;;;6104693;23;20249;-80
2021/04/04 06:12:23;;;;;;;1.15;0.10;;;6.10;99.90;;;;;;6108221;23;20065;-77
2021/04/04 06:15:18;;;;;;;5.65;0.80;;;6.20;99.90;;;;;;6102563;23;20054;-78
2021/04/04 06:18:03;;;;;;;3.20;0.45;;;6.20;99.90;;;;;;6102112;23;20057;-78
2021/04/04 06:20:34;;;;;;;8.40;0.75;;;6.20;99.90;;;;;;6102425;23;20005;-79
2021/04/04 06:23:12;;;;;;;6.57;0.68;;;6.20;99.90;;;;;;6129108;23;20442;-78
2021/04/04 06:25:44;;;;;;;4.38;0.40;;;6.20;99.90;;;;;;6102417;23;20137;-78
2021/04/04 06:28:34;;;;;;;6.13;0.40;;;6.30;99.90;;;;;;6126658;23;20006;-78
2021/04/04 06:31:25;;;;;;;2.63;0.35;;;6.30;99.90;;;;;;6102312;23;20032;-78
2021/04/04 06:34:07;;;;;;;3.55;0.03;;;6.30;99.90;;;;;;6126693;23;20033;-78
2021/04/04 06:36:53;;;;;;;3.78;0.20;;;6.30;99.90;;;;;;6102547;23;20059;-78
2021/04/04 06:39:36;;;;;;;5.60;0.40;;;6.30;99.90;;;;;;6102482;23;20006;-78
2021/04/04 06:42:17;;;;;;;6.65;0.38;;;6.40;99.90;;;;;;6126874;23;20074;-78
2021/04/04 06:44:55;;;;;;;2.78;0.20;;;6.30;99.90;;;;;;6129663;23;20002;-77
2021/04/04 06:47:40;;;;;;;6.53;0.47;;;6.30;99.90;;;;;;6129414;23;20009;-76
2021/04/04 06:50:22;;;;;;;10.80;1.00;;;6.30;99.90;;;;;;6129404;23;20001;-77
2021/04/04 06:52:56;;;;;;;3.08;0.20;;;6.30;99.90;;;;;;6103746;23;20006;-77
2021/04/04 06:55:59;;;;;;;9.00;0.20;;;6.30;99.90;;;;;;6127805;23;20008;-78
2021/04/04 06:58:46;;;;;;;5.00;0.73;;;6.30;99.90;;;;;;6129194;23;20068;-77
2021/04/04 07:01:28;;;;;;;3.53;0.55;;;6.30;99.90;;;;;;6159659;23;19997;-80
2021/04/04 07:04:07;;;;;;;9.77;0.73;;;6.30;99.90;;;;;;6133214;23;20005;-80
2021/04/04 07:07:06;;;;;;;2.10;0.20;;;6.40;99.90;;;;;;6134149;23;20440;-81
2021/04/04 07:10:06;;;;;;;3.92;0.57;;;6.40;99.90;;;;;;6157740;23;20032;-79
2021/04/04 07:12:44;;;;;;;3.00;0.75;;;6.40;99.90;;;;;;6158390;23;20381;-77
2021/04/04 07:15:50;;;;;;;2.00;0.30;;;6.50;99.90;;;;;;6158323;23;20029;-78
2021/04/04 07:21:24;;;;;;;3.75;0.40;;;6.50;99.90;;;;;;6159562;23;20025;-77
2021/04/04 07:23:56;;;;;;;2.13;0.55;;;6.50;99.90;;;;;;6133406;23;20393;-81
2021/04/04 07:26:59;;;;;;;1.70;0.20;;;6.50;99.90;;;;;;6142176;23;20044;-76
2021/04/04 07:29:36;;;;;;;1.63;0.22;;;6.40;99.90;;;;;;6103624;23;20037;-79
2021/04/04 07:32:12;;;;;;;7.10;0.57;;;6.50;99.90;;;;;;6103094;23;20037;-77
2021/04/04 07:34:54;;;;;;;3.22;0.50;;;6.40;99.90;;;;;;6128283;23;20037;-76
2021/04/04 07:37:20;;;;;;;0.70;0.00;;;6.30;99.90;;;;;;6128725;23;20006;-78
2021/04/04 07:40:01;;;;;;;2.08;0.00;;;6.40;99.90;;;;;;6102893;23;20080;-77
2021/04/04 07:42:47;;;;;;;3.53;0.32;;;6.40;99.90;;;;;;6103000;23;20089;-79
2021/04/04 07:45:22;;;;;;;2.03;0.20;;;6.50;99.90;;;;;;6102218;23;20009;-79
2021/04/04 07:48:08;;;;;;;2.40;0.15;;;6.50;99.90;;;;;;6123435;23;20013;-77
2021/04/04 07:50:40;;;;;;;2.10;0.60;;;6.40;99.90;;;;;;6133454;23;20376;-79
2021/04/04 07:53:27;;;;;;;1.90;0.10;;;6.60;99.90;;;;;;6159758;23;20008;-77
2021/04/04 07:56:13;;;;;;;3.58;0.50;;;6.60;99.90;;;;;;6159187;23;20077;-80
2021/04/04 07:59:01;;;;;;;2.45;0.20;;;6.70;99.90;;;;;;6160065;23;20001;-80
2021/04/04 08:01:56;;;;;;;1.00;0.00;;;6.70;99.90;;;;;;6163008;23;20005;-78
2021/04/04 08:04:46;;;;;;;2.25;0.00;;;6.70;99.90;;;;;;6114900;23;20010;-78
2021/04/04 08:07:20;;;;;;;3.28;0.10;;;6.70;99.90;;;;;;6160048;23;20009;-78
2021/04/04 08:10:07;;;;;;;4.95;0.70;;;6.80;99.90;;;;;;6163097;23;19998;-78
2021/04/04 08:12:49;;;;;;;9.07;0.40;;;6.80;99.90;;;;;;6140260;23;20002;-78
2021/04/04 08:15:21;;;;;;;4.68;0.90;;;6.80;99.90;;;;;;6131884;23;20045;-78
2021/04/04 08:17:47;;;;;;;4.20;0.90;;;8.30;99.90;;;;;;6158541;23;20009;-80
2021/04/04 08:20:30;;;;;;;3.03;0.63;;;6.20;99.90;;;;;;6133413;23;20025;-80
2021/04/04 08:23:09;;;;;;;3.08;1.15;;;6.80;99.90;;;;;;6161426;23;20492;-79
2021/04/04 08:25:52;;;;;;;6.43;0.50;;;6.80;99.90;;;;;;6127693;23;19998;-79
2021/04/04 08:28:25;;;;;;;3.10;0.70;;;6.90;99.90;;;;;;6130200;23;20022;-77
2021/04/04 08:31:20;;;;;;;5.80;0.70;;;6.90;99.90;;;;;;6126536;23;20033;-79
2021/04/04 08:34:02;;;;;;;11.45;0.80;;;7.00;99.90;;;;;;6128897;23;20072;-77
2021/04/04 08:36:31;;;;;;;4.07;0.30;;;6.90;99.90;;;;;;6130337;23;20009;-79
2021/04/04 08:38:59;;;;;;;4.18;0.63;;;7.00;99.90;;;;;;6128896;23;20081;-78
2021/04/04 08:41:29;;;;;;;2.07;0.20;;;7.00;99.90;;;;;;6126877;23;20006;-78
2021/04/04 08:44:01;;;;;;;2.80;0.17;;;7.00;99.90;;;;;;6100347;23;20085;-78
2021/04/04 08:46:39;;;;;;;2.58;0.10;;;7.20;99.90;;;;;;6124507;23;20029;-78
2021/04/04 08:49:05;;;;;;;9.00;0.35;;;7.20;99.40;;;;;;6126538;23;20488;-78
2021/04/04 08:51:36;;;;;;;6.65;0.75;;;7.20;98.90;;;;;;6126158;23;20006;-78
2021/04/04 08:54:12;;;;;;;8.88;0.30;;;7.40;96.90;;;;;;6126522;23;20002;-79
2021/04/04 08:56:41;;;;;;;4.85;0.60;;;7.40;97.30;;;;;;6126021;23;20427;-78
2021/04/04 08:59:08;;;;;;;4.70;0.60;;;7.50;98.00;;;;;;6126371;23;20088;-78
2021/04/04 09:01:38;;;;;;;3.25;0.60;;;7.60;96.10;;;;;;6126809;23;20045;-78
2021/04/04 09:04:07;;;;;;;4.25;0.22;;;7.70;94.40;;;;;;6127091;23;20338;-78
2021/04/04 09:06:47;;;;;;;3.20;0.28;;;7.70;95.90;;;;;;6125722;23;20005;-78
2021/04/04 09:09:18;;;;;;;3.25;0.57;;;7.80;95.80;;;;;;6126803;23;20073;-78
2021/04/04 09:11:46;;;;;;;4.13;0.73;;;7.90;94.90;;;;;;6126210;23;20008;-79
2021/04/04 09:14:17;;;;;;;3.92;0.35;;;7.70;94.70;;;;;;6130221;23;20009;-78
2021/04/04 09:16:57;;;;;;;6.25;0.80;;;7.80;93.80;;;;;;6129693;23;20006;-81
2021/04/04 09:19:40;;;;;;;5.72;0.70;;;7.90;93.60;;;;;;6139137;23;20067;-82
2021/04/04 09:22:20;;;;;;;6.88;1.33;;;7.90;93.30;;;;;;6161537;23;20028;-78
2021/04/04 09:24:58;;;;;;;10.15;0.55;;;8.10;93.60;;;;;;6137089;23;20055;-80
2021/04/04 09:27:27;;;;;;;11.52;0.50;;;8.10;92.80;;;;;;6131115;23;20404;-78
2021/04/04 09:29:57;;;;;;;4.15;0.55;;;8.20;93.90;;;;;;6133004;23;20002;-80
2021/04/04 09:32:39;;;;;;;5.15;0.75;;;8.20;93.20;;;;;;6130958;23;20042;-78
2021/04/04 09:35:06;;;;;;;5.20;0.65;;;8.40;92.50;;;;;;6126439;23;20021;-78
2021/04/04 09:37:33;;;;;;;8.52;1.13;;;8.40;92.00;;;;;;6128201;23;20478;-78
2021/04/04 09:39:59;;;;;;;6.80;1.35;;;8.50;92.20;;;;;;6129650;23;20010;-78
2021/04/04 09:42:29;;;;;;;5.68;0.57;;;8.50;90.90;;;;;;6129612;23;20006;-78
2021/04/04 09:45:18;;;;;;;8.88;0.98;;;8.60;91.20;;;;;;6128627;23;20449;-79
2021/04/04 09:47:45;;;;;;;5.63;0.80;;;8.50;90.30;;;;;;6127904;23;20315;-79
2021/04/04 09:50:31;;;;;;;2.75;0.30;;;8.50;90.30;;;;;;6130950;23;19998;-80
2021/04/04 09:52:58;;;;;;;7.80;1.42;;;8.40;90.90;;;;;;6131273;23;20037;-79
2021/04/04 09:55:26;;;;;;;5.38;0.75;;;8.50;90.80;;;;;;6132990;23;20449;-80
2021/04/04 09:58:01;;;;;;;4.50;1.02;;;8.50;90.40;;;;;;6134125;23;20029;-78
2021/04/04 10:00:29;;;;;;;9.52;1.38;;;8.60;91.00;;;;;;6132469;23;20057;-79
2021/04/04 10:02:57;;;;;;;6.75;1.30;;;8.60;91.10;;;;;;6130473;23;20010;-77
2021/04/04 10:05:31;;;;;;;4.93;0.70;;;8.60;89.20;;;;;;6131644;23;20026;-79
2021/04/04 10:08:23;;;;;;;4.20;0.68;;;8.50;89.20;;;;;;6129751;23;20049;-80
2021/04/04 10:10:51;;;;;;;8.05;2.17;;;8.60;90.00;;;;;;6128805;23;20085;-78
2021/04/04 10:13:23;;;;;;;5.57;1.23;;;8.70;90.80;;;;;;6132479;23;20006;-80
2021/04/04 10:15:51;;;;;;;4.38;1.10;;;8.60;90.80;;;;;;6134285;23;20369;-79
2021/04/04 10:18:18;;;;;;;7.78;0.73;;;8.70;90.50;;;;;;6084663;23;20021;-79
2021/04/04 10:20:46;;;;;;;4.38;1.05;;;8.70;90.40;;;;;;6133592;23;20020;-81
2021/04/04 10:23:14;;;;;;;14.38;2.42;;;8.80;88.30;;;;;;6133054;23;20022;-82
2021/04/04 10:26:03;;;;;;;8.32;1.20;;;8.80;90.00;;;;;;6132664;23;20006;-79
2021/04/04 10:28:48;;;;;;;6.25;1.50;;;8.80;90.50;;;;;;6129254;23;20009;-77
2021/04/04 10:31:15;;;;;;;6.97;1.87;;;8.80;89.20;;;;;;6127985;23;20045;-78
2021/04/04 10:33:41;;;;;;;5.05;0.90;;;11.20;90.30;;;;;;6129592;23;20140;-77
2021/04/04 10:36:17;;;;;;;10.50;2.50;;;10.50;90.70;;;;;;6156178;23;20454;-76
2021/04/04 10:38:44;;;;;;;9.43;3.03;;;8.90;88.90;;;;;;6130958;23;20012;-77
2021/04/04 10:41:31;;;;;;;12.20;3.17;;;8.90;88.60;;;;;;6158189;23;20001;-75
2021/04/04 10:43:58;;;;;;;9.57;3.40;;;8.90;86.90;;;;;;6158222;23;20085;-78
2021/04/04 10:46:33;;;;;;;19.95;3.80;;;8.80;87.50;;;;;;6158302;23;20001;-79
2021/04/04 10:48:59;;;;;;;13.10;3.45;;;8.80;89.00;;;;;;6131058;23;20010;-78
2021/04/04 10:51:26;;;;;;;7.78;3.33;;;8.90;89.20;;;;;;6157757;23;20425;-74
2021/04/04 10:53:52;;;;;;;13.13;3.50;;;9.00;90.20;;;;;;6131364;23;20384;-75
2021/04/04 10:56:18;;;;;;;9.45;3.72;;;9.10;87.20;;;;;;6131416;23;20025;-75
2021/04/04 10:58:45;;;;;;;13.05;3.88;;;9.20;86.20;;;;;;6157593;23;20012;-74
2021/04/04 11:01:12;;;;;;;12.13;4.45;;;9.20;87.50;;;;;;6156625;23;20017;-77
2021/04/04 11:03:41;;;;;;;14.20;3.63;;;8.20;87.30;;;;;;6157381;23;20056;-77
2021/04/04 11:06:07;;;;;;;;;;;9.30;88.40;;;;;;6125972;23;20058;-78
2021/04/04 11:08:33;;;;;;;10.63;3.15;;;11.80;87.20;;;;;;6127575;23;19912;-77
2021/04/04 11:11:00;;;;;;;11.05;3.47;;;9.20;86.40;;;;;;6128155;23;20308;-79
2021/04/04 11:13:26;;;;;;;6.45;2.72;;;9.40;86.10;;;;;;6128366;23;20110;-78
2021/04/04 11:15:57;;;;;;;10.25;2.72;;;9.30;85.00;;;;;;6101844;23;20005;-76
2021/04/04 11:18:50;;;;;;;10.02;3.47;;;9.40;85.20;;;;;;6128011;23;20002;-77
2021/04/04 11:21:31;;;;;;;9.30;2.88;;;9.60;83.70;;;;;;6102781;23;20084;-78
2021/04/04 11:23:57;;;;;;;8.10;3.08;;;9.60;82.20;;;;;;6101109;23;20006;-76
2021/04/04 11:26:30;;;;;;;13.48;2.95;;;9.50;85.40;;;;;;6127116;23;20002;-77
2021/04/04 11:29:18;;;;;;;6.57;2.13;;;9.60;83.40;;;;;;6126773;23;20071;-76
2021/04/04 11:31:46;;;;;;;9.10;2.72;;;9.70;84.70;;;;;;6101884;23;20002;-77
2021/04/04 11:34:33;;;;;;;12.10;2.65;;;9.60;82.90;;;;;;6128826;23;19998;-73
2021/04/04 11:37:12;;;;;;;11.30;2.75;;;9.50;83.90;;;;;;6127193;23;20315;-76
2021/04/04 11:39:38;;;;;;;7.35;1.67;;;9.50;85.00;;;;;;6127092;23;20425;-75
2021/04/04 11:42:05;;;;;;;7.45;1.98;;;9.60;82.80;;;;;;6126290;23;20009;-75
2021/04/04 11:44:39;;;;;;;7.38;1.48;;;9.70;82.90;;;;;;6125374;23;20009;-75
2021/04/04 11:47:17;;;;;;;9.57;2.38;;;9.70;83.60;;;;;;6100487;23;20025;-73
2021/04/04 11:49:47;;;;;;;9.18;1.13;;;9.70;80.30;;;;;;6126920;23;20010;-78
2021/04/04 11:52:15;;;;;;;8.15;1.70;;;9.70;81.70;;;;;;6126675;23;20006;-76
2021/04/04 11:54:41;;;;;;;10.63;1.80;;;9.70;83.30;;;;;;6126820;23;19998;-75
2021/04/04 11:57:10;;;;;;;8.02;1.20;;;9.90;81.60;;;;;;6101130;23;20002;-75
2021/04/04 11:59:36;;;;;;;8.50;1.23;;;10.00;79.80;;;;;;6127737;23;20072;-76
2021/04/04 12:02:02;;;;;;;6.47;0.80;;;10.00;79.60;;;;;;6129825;23;20438;-78
2021/04/04 12:04:45;;;;;;;6.55;1.85;;;10.20;81.80;;;;;;6155440;23;20088;-75
2021/04/04 12:07:16;;;;;;;3.92;1.42;;;10.20;79.70;;;;;;6156918;23;20480;-76
2021/04/04 12:09:47;;;;;;;7.45;1.30;;;10.40;77.40;;;;;;6157477;23;19998;-77
2021/04/04 12:12:13;;;;;;;5.28;1.30;;;10.50;77.40;;;;;;6156854;23;20004;-76
2021/04/04 12:14:52;;;;;;;7.93;0.93;;;10.60;75.90;;;;;;6156280;23;20068;-77
2021/04/04 12:17:19;;;;;;;3.90;1.00;;;10.40;74.90;;;;;;6156819;23;20032;-76
2021/04/04 12:19:45;;;;;;;3.75;1.33;;;10.50;75.40;;;;;;6157106;23;19998;-74
2021/04/04 12:22:13;;;;;;;5.40;1.08;;;10.70;74.60;;;;;;6156515;23;20077;-73
2021/04/04 12:24:42;;;;;;;7.63;1.42;;;10.70;74.30;;;;;;6156968;23;20005;-75
2021/04/04 12:27:10;;;;;;;3.90;0.57;;;10.70;76.20;;;;;;6130056;23;20345;-79
2021/04/04 12:29:43;;;;;;;5.80;1.52;;;10.80;73.50;;;;;;6156118;23;20015;-77
2021/04/04 12:32:17;;;;;;;4.90;1.33;;;10.90;72.20;;;;;;6156385;23;20002;-76
2021/04/04 12:34:43;;;;;;;9.02;1.20;;;10.70;72.50;;;;;;6129907;23;20014;-75
2021/04/04 12:37:23;;;;;;;6.20;1.38;;;10.50;73.40;;;;;;6155804;23;20053;-73
2021/04/04 12:39:53;;;;;;;4.80;1.00;;;10.40;75.20;;;;;;6129647;23;20080;-74
2021/04/04 12:42:39;;;;;;;4.40;1.77;;;10.50;74.20;;;;;;6130529;23;20372;-74
2021/04/04 12:45:07;;;;;;;6.32;1.02;;;10.50;75.20;;;;;;6155117;23;20002;-74
2021/04/04 12:47:33;;;;;;;5.30;1.10;;;10.60;75.00;;;;;;6155836;23;20002;-74
2021/04/04 12:50:06;;;;;;;6.18;1.23;;;10.60;73.50;;;;;;6155875;23;20008;-73
2021/04/04 12:52:38;;;;;;;9.15;1.35;;;10.50;74.60;;;;;;6129652;23;20089;-74
2021/04/04 12:55:18;;;;;;;8.65;1.90;;;10.70;77.10;;;;;;6132250;23;20028;-73
2021/04/04 12:57:46;;;;;;;8.52;1.95;;;10.70;76.10;;;;;;6132286;23;20032;-76
2021/04/04 13:00:20;;;;;;;7.80;1.52;;;10.80;77.30;;;;;;6157372;23;20125;-76
2021/04/04 13:02:54;;;;;;;9.18;0.95;;;10.50;74.70;;;;;;6132235;23;20517;-73
2021/04/04 13:05:20;;;;;;;10.35;2.03;;;10.90;75.90;;;;;;6157867;23;20013;-75
2021/04/04 13:07:45;;;;;;;41.30;12.02;;;10.90;73.90;;;;;;6158179;23;20010;-76
2021/04/04 13:10:11;;;;;;;22.08;5.80;;;10.90;73.00;;;;;;6158185;23;20410;-77
2021/04/04 13:12:38;;;;;;;6.53;1.05;;;11.10;75.80;;;;;;6132157;23;20009;-75
2021/04/04 13:15:06;;;;;;;8.52;1.20;;;11.40;71.40;;;;;;6158436;23;20089;-74
2021/04/04 13:17:41;;;;;;;5.20;1.38;;;11.50;71.20;;;;;;6158570;23;20009;-76
2021/04/04 13:20:09;;;;;;;7.88;1.73;;;11.50;70.00;;;;;;6158423;23;20001;-77
2021/04/04 13:22:36;;;;;;;4.28;1.02;;;11.60;70.20;;;;;;6158112;23;20085;-77
2021/04/04 13:25:05;;;;;;;6.00;0.93;;;11.60;69.80;;;;;;6159110;23;20006;-76
2021/04/04 13:27:31;;;;;;;;;;;11.60;68.90;;;;;;6158408;23;20024;-79